Time;durP1;ratioP1;P1;durP2;ratioP2;P2;SDS_P1;SDS_P2;PMS_P1;PMS_P2;Temp;Humidity;BMP_temperature;BMP_pressure;BME280_temperature;BME280_humidity;BME280_pressure;Samples;Min_cycle;Max_cycle;Signal;HPM_P1;HPM_P2
2022/10/07 00:00:46;;;;;;;12.30;2.67;;;10.10;99.90;;;;;;5074321;28;20053;-47
2022/10/07 00:03:13;;;;;;;14.88;3.05;;;10.10;99.90;;;;;;5075769;28;20128;-46
2022/10/07 00:05:40;;;;;;;15.95;2.70;;;10.10;99.90;;;;;;5075101;28;20145;-46
2022/10/07 00:08:07;;;;;;;10.10;2.70;;;10.00;99.90;;;;;;5073182;28;20516;-44
2022/10/07 00:10:37;;;;;;;11.32;2.72;;;10.00;99.90;;;;;;5074381;28;20460;-48
2022/10/07 00:13:04;;;;;;;10.55;2.70;;;10.00;99.90;;;;;;5075757;28;20084;-46
2022/10/07 00:15:32;;;;;;;11.68;2.90;;;10.00;99.90;;;;;;5074331;28;20049;-46
2022/10/07 00:17:59;;;;;;;13.68;3.15;;;10.00;99.90;;;;;;5073911;28;20408;-46
2022/10/07 00:20:25;;;;;;;11.70;2.83;;;10.00;99.90;;;;;;5072272;28;20477;-40
2022/10/07 00:22:53;;;;;;;12.93;3.38;;;10.00;99.90;;;;;;5073242;28;20475;-47
2022/10/07 00:25:20;;;;;;;9.93;2.55;;;9.90;99.90;;;;;;5071504;28;20403;-47
2022/10/07 00:27:49;;;;;;;14.50;3.60;;;9.90;99.90;;;;;;5071868;28;20048;-48
2022/10/07 00:30:15;;;;;;;11.30;2.92;;;9.90;99.90;;;;;;5070514;28;20044;-48
2022/10/07 00:32:44;;;;;;;13.85;2.95;;;9.90;99.90;;;;;;5073080;28;20417;-45
2022/10/07 00:35:10;;;;;;;14.43;3.10;;;9.90;99.90;;;;;;5061016;28;20137;-45
2022/10/07 00:37:41;;;;;;;14.68;3.35;;;9.90;99.90;;;;;;5062327;28;20099;-46
2022/10/07 00:40:10;;;;;;;18.27;3.35;;;9.90;99.90;;;;;;5071692;28;20055;-45
2022/10/07 00:42:37;;;;;;;13.93;3.00;;;9.90;99.90;;;;;;5074142;28;20080;-45
2022/10/07 00:45:04;;;;;;;13.05;3.80;;;9.90;99.90;;;;;;5074197;28;20057;-46
2022/10/07 00:47:32;;;;;;;15.68;3.45;;;9.90;99.90;;;;;;5072767;28;20092;-46
2022/10/07 00:50:02;;;;;;;15.65;3.10;;;9.90;99.90;;;;;;5071697;28;20056;-49
2022/10/07 00:52:30;;;;;;;14.70;3.70;;;9.90;99.90;;;;;;5071786;28;20064;-47
2022/10/07 00:54:57;;;;;;;11.75;3.40;;;9.90;99.90;;;;;;5073170;28;20098;-44
2022/10/07 00:57:26;;;;;;;10.20;3.13;;;9.80;99.90;;;;;;5071877;28;20102;-43
2022/10/07 00:59:53;;;;;;;15.85;3.70;;;9.80;99.90;;;;;;5070196;28;20087;-46
2022/10/07 01:02:20;;;;;;;11.52;2.88;;;9.80;99.90;;;;;;5067758;28;20060;-49
2022/10/07 01:04:46;;;;;;;14.38;3.35;;;9.80;99.90;;;;;;5070857;28;20082;-48
2022/10/07 01:07:17;;;;;;;12.35;3.55;;;9.80;99.90;;;;;;5072419;28;20083;-46
2022/10/07 01:09:45;;;;;;;11.82;3.22;;;9.80;99.90;;;;;;5070398;28;20054;-45
2022/10/07 01:12:14;;;;;;;11.52;3.20;;;9.80;99.90;;;;;;5073598;28;20052;-49
2022/10/07 01:14:47;;;;;;;16.08;3.65;;;9.70;99.90;;;;;;5073443;28;20083;-46
2022/10/07 01:17:19;;;;;;;23.65;3.38;;;9.80;99.90;;;;;;5072987;28;20464;-46
2022/10/07 01:20:00;;;;;;;16.27;3.88;;;9.60;99.90;;;;;;5072722;28;20128;-43
2022/10/07 01:22:32;;;;;;;14.30;3.80;;;9.70;99.90;;;;;;5071276;28;20129;-47
2022/10/07 01:25:11;;;;;;;19.17;3.88;;;9.70;99.90;;;;;;5062959;28;20127;-42
2022/10/07 01:27:39;;;;;;;15.27;4.05;;;9.70;99.90;;;;;;5060701;28;20044;-46
2022/10/07 01:30:07;;;;;;;14.98;3.83;;;9.60;99.90;;;;;;5065600;28;20127;-48
2022/10/07 01:32:36;;;;;;;15.43;3.67;;;9.60;99.90;;;;;;5072937;28;20080;-45
2022/10/07 01:35:04;;;;;;;19.60;3.72;;;9.60;99.90;;;;;;5064734;28;20104;-42
2022/10/07 01:37:34;;;;;;;17.55;4.43;;;9.60;99.90;;;;;;5064572;28;20052;-45
2022/10/07 01:40:02;;;;;;;12.43;3.80;;;9.60;99.90;;;;;;5072310;28;20424;-45
2022/10/07 01:42:29;;;;;;;18.45;4.00;;;9.60;99.90;;;;;;5071690;28;20056;-46
2022/10/07 01:44:58;;;;;;;18.45;4.18;;;9.60;99.90;;;;;;5072185;28;20075;-46
2022/10/07 01:47:25;;;;;;;16.38;3.45;;;9.60;99.90;;;;;;5072860;28;20075;-46
2022/10/07 01:49:52;;;;;;;15.68;4.10;;;9.60;99.90;;;;;;5070646;28;20565;-45
2022/10/07 01:52:28;;;;;;;18.58;4.28;;;9.60;99.90;;;;;;5071011;28;20127;-43
2022/10/07 01:55:16;;;;;;;18.50;3.95;;;9.60;99.90;;;;;;5072067;28;20079;-46
2022/10/07 01:57:48;;;;;;;21.30;4.80;;;9.60;99.90;;;;;;5058972;28;20115;-48
2022/10/07 02:00:16;;;;;;;15.15;4.18;;;9.60;99.90;;;;;;5068872;28;20132;-46
2022/10/07 02:02:57;;;;;;;20.90;4.15;;;9.60;99.90;;;;;;5071438;28;20056;-49
2022/10/07 02:05:28;;;;;;;18.23;3.55;;;9.60;99.90;;;;;;5068328;28;20434;-46
2022/10/07 02:08:03;;;;;;;15.15;3.47;;;9.60;99.90;;;;;;5069324;28;20139;-46
2022/10/07 02:10:33;;;;;;;13.95;3.60;;;9.60;99.90;;;;;;5071239;28;20059;-47
2022/10/07 02:13:02;;;;;;;11.30;4.07;;;9.60;99.90;;;;;;5070277;28;20053;-48
2022/10/07 02:15:32;;;;;;;11.57;3.33;;;9.60;99.90;;;;;;5064405;28;20052;-48
2022/10/07 02:18:01;;;;;;;18.42;4.28;;;9.60;99.90;;;;;;5070824;28;20500;-47
2022/10/07 02:20:30;;;;;;;10.90;3.88;;;9.50;99.90;;;;;;5072717;28;20095;-44
2022/10/07 02:22:58;;;;;;;14.63;4.25;;;9.50;99.90;;;;;;5067546;28;20052;-50
2022/10/07 02:25:25;;;;;;;12.77;3.78;;;9.50;99.90;;;;;;5067991;28;20083;-50
2022/10/07 02:27:52;;;;;;;16.08;3.97;;;9.50;99.90;;;;;;5070552;28;20131;-50
2022/10/07 02:30:19;;;;;;;17.15;3.63;;;9.50;99.90;;;;;;5071875;28;20131;-49
2022/10/07 02:32:49;;;;;;;16.20;3.53;;;9.50;99.90;;;;;;5072228;28;20048;-48
2022/10/07 02:35:19;;;;;;;15.18;4.00;;;9.50;99.90;;;;;;5071433;28;20048;-49
2022/10/07 02:37:46;;;;;;;16.00;3.92;;;9.50;99.90;;;;;;5070400;28;20086;-49
2022/10/07 02:40:13;;;;;;;21.45;4.40;;;9.40;99.90;;;;;;5070525;28;20064;-51
2022/10/07 02:42:41;;;;;;;14.90;3.78;;;9.40;99.90;;;;;;5072093;28;20072;-49
2022/10/07 02:45:12;;;;;;;15.18;4.72;;;9.40;99.90;;;;;;5069453;28;20052;-49
2022/10/07 02:47:40;;;;;;;18.30;4.22;;;9.40;99.90;;;;;;5070919;28;20106;-47
2022/10/07 02:50:10;;;;;;;23.75;5.00;;;9.40;99.90;;;;;;5072573;28;20189;-47
2022/10/07 02:52:37;;;;;;;12.85;3.65;;;9.30;99.90;;;;;;5072077;28;20420;-51
2022/10/07 02:55:05;;;;;;;17.75;4.15;;;9.30;99.90;;;;;;5070491;28;20137;-48
2022/10/07 02:57:34;;;;;;;17.42;4.53;;;9.30;99.90;;;;;;5070542;28;20049;-52
2022/10/07 03:00:01;;;;;;;19.30;4.55;;;9.20;99.90;;;;;;5071934;28;20072;-50
2022/10/07 03:02:30;;;;;;;18.63;4.50;;;9.30;99.90;;;;;;5068058;28;20052;-50
2022/10/07 03:04:57;;;;;;;21.38;4.78;;;9.20;99.90;;;;;;5075328;28;20044;-52
2022/10/07 03:07:25;;;;;;;18.40;4.65;;;9.30;99.90;;;;;;5074778;28;20052;-47
2022/10/07 03:09:52;;;;;;;16.75;4.15;;;9.20;99.90;;;;;;5076398;28;20575;-48
2022/10/07 03:12:19;;;;;;;15.10;4.50;;;9.20;99.90;;;;;;5075697;28;20118;-50
2022/10/07 03:14:48;;;;;;;13.48;4.72;;;9.20;99.90;;;;;;5075089;28;20448;-50
2022/10/07 03:17:15;;;;;;;15.50;3.85;;;9.20;99.90;;;;;;5073495;28;20503;-48
2022/10/07 03:19:42;;;;;;;20.98;4.93;;;9.20;99.90;;;;;;5074316;28;20153;-50
2022/10/07 03:22:09;;;;;;;17.85;4.40;;;9.10;99.90;;;;;;5075058;28;20044;-50
2022/10/07 03:24:37;;;;;;;22.33;5.10;;;9.10;99.90;;;;;;5069178;28;20041;-50
2022/10/07 03:27:06;;;;;;;16.10;4.35;;;9.10;99.90;;;;;;5074371;28;20190;-48
2022/10/07 03:29:33;;;;;;;23.27;4.82;;;9.10;99.90;;;;;;5075047;28;20052;-49
2022/10/07 03:32:00;;;;;;;24.25;5.00;;;9.10;99.90;;;;;;5074915;28;20080;-47
2022/10/07 03:34:27;;;;;;;14.52;4.90;;;9.10;99.90;;;;;;5074865;28;20456;-47
2022/10/07 03:36:54;;;;;;;19.63;4.80;;;9.10;99.90;;;;;;5073928;28;20091;-49
2022/10/07 03:39:21;;;;;;;18.27;4.60;;;9.10;99.90;;;;;;5073075;28;20091;-48
2022/10/07 03:41:50;;;;;;;18.23;4.82;;;9.10;99.90;;;;;;5074652;28;20080;-46
2022/10/07 03:44:18;;;;;;;17.50;4.57;;;9.10;99.90;;;;;;5056041;28;20400;-48
2022/10/07 03:46:45;;;;;;;21.80;5.05;;;9.10;99.90;;;;;;5074465;28;20056;-47
2022/10/07 03:49:11;;;;;;;21.52;5.53;;;9.00;99.90;;;;;;5073947;28;20098;-48
2022/10/07 03:51:38;;;;;;;21.88;4.45;;;9.00;99.90;;;;;;5073287;28;20091;-47
2022/10/07 03:54:05;;;;;;;26.73;5.07;;;9.00;99.90;;;;;;5074954;28;20084;-50
2022/10/07 03:56:32;;;;;;;19.80;4.78;;;9.00;99.90;;;;;;5072025;28;20059;-50
2022/10/07 03:59:00;;;;;;;26.60;5.70;;;9.00;99.90;;;;;;5074914;28;20076;-46
2022/10/07 04:01:30;;;;;;;16.30;4.72;;;9.00;99.90;;;;;;5072090;28;20045;-50
2022/10/07 04:03:57;;;;;;;21.63;5.22;;;9.00;99.90;;;;;;5070254;28;20053;-48
2022/10/07 04:06:24;;;;;;;17.05;4.95;;;9.00;99.90;;;;;;5073193;28;20127;-48
2022/10/07 04:08:51;;;;;;;26.23;4.75;;;9.00;99.90;;;;;;5075354;28;20442;-50
2022/10/07 04:11:18;;;;;;;18.30;4.68;;;9.10;99.90;;;;;;5073947;28;20459;-50
2022/10/07 04:13:45;;;;;;;17.75;5.07;;;9.10;99.90;;;;;;5071836;28;20456;-43
2022/10/07 04:16:13;;;;;;;27.63;5.43;;;9.10;99.90;;;;;;5067614;28;20131;-44
2022/10/07 04:18:40;;;;;;;20.98;4.35;;;9.10;99.90;;;;;;5074019;28;20171;-50
2022/10/07 04:21:07;;;;;;;25.30;5.28;;;9.10;99.90;;;;;;5072270;28;20099;-45
2022/10/07 04:23:34;;;;;;;29.90;5.63;;;9.10;99.90;;;;;;5074267;28;20562;-48
2022/10/07 04:26:01;;;;;;;21.60;4.82;;;9.10;99.90;;;;;;5067473;28;20075;-47
2022/10/07 04:28:27;;;;;;;27.17;5.03;;;9.10;99.90;;;;;;5068454;28;20048;-46
2022/10/07 04:30:54;;;;;;;22.95;5.90;;;9.10;99.90;;;;;;5071230;28;20123;-48
2022/10/07 04:33:23;;;;;;;19.77;4.75;;;9.10;99.90;;;;;;5069162;28;20072;-49
2022/10/07 04:35:50;;;;;;;29.30;5.70;;;9.10;99.90;;;;;;5059658;28;20446;-46
2022/10/07 04:38:17;;;;;;;25.70;4.90;;;9.10;99.90;;;;;;5072653;28;20102;-49
2022/10/07 04:40:45;;;;;;;30.17;5.03;;;9.20;99.90;;;;;;5064933;28;20053;-50
2022/10/07 04:43:18;;;;;;;20.13;4.80;;;9.20;99.90;;;;;;5061457;28;20110;-50
2022/10/07 04:45:45;;;;;;;26.67;5.18;;;9.10;99.90;;;;;;5073672;28;20076;-47
2022/10/07 04:48:12;;;;;;;25.38;5.25;;;9.20;99.90;;;;;;5072286;28;20048;-47
2022/10/07 04:50:40;;;;;;;21.55;5.47;;;9.20;99.90;;;;;;5074013;28;20084;-48
2022/10/07 04:53:07;;;;;;;23.02;5.60;;;9.20;99.90;;;;;;5073340;28;20052;-51
2022/10/07 04:55:37;;;;;;;29.63;5.97;;;9.20;99.90;;;;;;5072410;28;20056;-44
2022/10/07 04:58:04;;;;;;;18.58;5.15;;;9.20;99.90;;;;;;5071013;28;20087;-48
2022/10/07 05:00:31;;;;;;;19.38;5.00;;;9.20;99.90;;;;;;5061633;28;20049;-48
2022/10/07 05:02:57;;;;;;;25.50;5.28;;;9.30;99.90;;;;;;5065969;28;20084;-48
2022/10/07 05:05:25;;;;;;;19.88;5.63;;;9.20;99.90;;;;;;5071040;28;20072;-48
2022/10/07 05:07:53;;;;;;;24.80;5.30;;;9.30;99.90;;;;;;5061587;28;20076;-46
2022/10/07 05:10:20;;;;;;;22.08;5.38;;;9.30;99.90;;;;;;5067580;28;20076;-48
2022/10/07 05:12:47;;;;;;;22.58;5.43;;;9.30;99.90;;;;;;5072187;28;20052;-40
2022/10/07 05:15:14;;;;;;;24.05;5.15;;;9.40;99.90;;;;;;5070356;28;20110;-47
2022/10/07 05:17:40;;;;;;;25.00;6.03;;;9.40;99.90;;;;;;5067035;28;20064;-51
2022/10/07 05:20:08;;;;;;;24.60;5.65;;;9.40;99.90;;;;;;5071080;28;20095;-50
2022/10/07 05:22:35;;;;;;;29.35;5.93;;;9.40;99.90;;;;;;5072332;28;20128;-51
2022/10/07 05:25:04;;;;;;;25.77;5.80;;;9.40;99.90;;;;;;5062595;28;20052;-49
2022/10/07 05:27:31;;;;;;;20.55;5.50;;;9.40;99.90;;;;;;5066615;28;20079;-50
2022/10/07 05:29:58;;;;;;;25.42;5.90;;;9.40;99.90;;;;;;5071106;28;20048;-50
2022/10/07 05:32:25;;;;;;;23.77;5.72;;;9.40;99.90;;;;;;5066056;28;20492;-53
2022/10/07 05:34:52;;;;;;;27.33;6.10;;;9.40;99.90;;;;;;5072547;28;20046;-52
2022/10/07 05:37:18;;;;;;;23.58;5.53;;;9.40;99.90;;;;;;5063545;28;20545;-47
2022/10/07 05:39:46;;;;;;;27.67;6.43;;;9.40;99.90;;;;;;5069301;28;20071;-48
2022/10/07 05:42:14;;;;;;;26.10;5.35;;;9.40;99.90;;;;;;5055862;28;20414;-49
2022/10/07 05:44:40;;;;;;;20.40;5.82;;;9.40;99.90;;;;;;5068118;28;20080;-50
2022/10/07 05:47:07;;;;;;;27.75;6.65;;;9.40;99.90;;;;;;5062915;28;20110;-48
2022/10/07 05:49:34;;;;;;;27.70;6.03;;;9.40;99.90;;;;;;5070047;28;20472;-48
2022/10/07 05:52:01;;;;;;;20.08;5.50;;;9.30;99.90;;;;;;5059252;28;20102;-51
2022/10/07 05:54:28;;;;;;;28.23;7.28;;;9.40;99.90;;;;;;5064079;28;20428;-49
2022/10/07 05:56:55;;;;;;;19.90;6.07;;;9.40;99.90;;;;;;5071215;28;20049;-49
2022/10/07 05:59:23;;;;;;;27.90;6.53;;;9.40;99.90;;;;;;5062078;28;20040;-52
2022/10/07 06:01:50;;;;;;;24.10;6.05;;;9.40;99.90;;;;;;5070579;28;20076;-46
2022/10/07 06:04:18;;;;;;;25.38;6.05;;;9.40;99.90;;;;;;5068441;28;20052;-49
2022/10/07 06:06:45;;;;;;;23.65;6.45;;;9.40;99.90;;;;;;5057846;28;20565;-50
2022/10/07 06:14:42;;;;;;;22.30;6.47;;;9.40;99.90;;;;;;5071243;28;20424;-52
2022/10/07 06:17:09;;;;;;;24.67;5.95;;;9.40;99.90;;;;;;5061542;28;20088;-52
2022/10/07 06:19:36;;;;;;;21.00;6.45;;;9.40;99.90;;;;;;5069084;28;20072;-52
2022/10/07 06:22:03;;;;;;;23.10;5.60;;;9.40;99.90;;;;;;5067468;28;20048;-51
2022/10/07 06:24:32;;;;;;;25.00;6.57;;;9.50;99.90;;;;;;5063152;28;20080;-50
2022/10/07 06:26:59;;;;;;;27.20;6.15;;;9.50;99.90;;;;;;5063717;28;20465;-50
2022/10/07 06:29:26;;;;;;;21.45;5.40;;;9.50;99.90;;;;;;5069922;28;20094;-47
2022/10/07 06:31:54;;;;;;;20.33;5.13;;;9.60;99.90;;;;;;5068835;28;20512;-48
2022/10/07 06:34:21;;;;;;;21.33;5.38;;;9.60;99.90;;;;;;5066802;28;20076;-48
2022/10/07 06:36:47;;;;;;;24.70;6.03;;;9.60;99.90;;;;;;5061392;28;20383;-52
2022/10/07 06:39:15;;;;;;;23.70;6.40;;;9.60;99.90;;;;;;5066645;28;20130;-50
2022/10/07 06:41:42;;;;;;;23.75;5.72;;;9.60;99.90;;;;;;5062815;28;20568;-49
2022/10/07 06:44:09;;;;;;;27.70;5.88;;;9.60;99.90;;;;;;5058984;28;20045;-51
2022/10/07 06:46:36;;;;;;;21.70;6.18;;;9.70;99.90;;;;;;5057574;28;20056;-50
2022/10/07 06:49:04;;;;;;;30.83;5.78;;;9.70;99.90;;;;;;5055278;28;20079;-49
2022/10/07 06:51:31;;;;;;;21.48;5.60;;;9.70;99.90;;;;;;5059071;28;20127;-53
2022/10/07 06:53:58;;;;;;;20.88;5.40;;;9.70;99.90;;;;;;5069064;28;20052;-50
2022/10/07 06:56:24;;;;;;;25.77;5.43;;;9.80;99.90;;;;;;5069586;28;20083;-51
2022/10/07 06:58:51;;;;;;;27.35;5.63;;;9.80;99.90;;;;;;5065806;28;20131;-48
2022/10/07 07:01:18;;;;;;;25.33;5.38;;;9.80;99.90;;;;;;5058899;28;20133;-50
2022/10/07 07:03:45;;;;;;;26.20;5.28;;;9.90;99.90;;;;;;5069291;28;20468;-51
2022/10/07 07:06:13;;;;;;;28.88;5.60;;;10.00;99.90;;;;;;5064988;28;20186;-49
2022/10/07 07:08:40;;;;;;;29.40;5.53;;;10.10;99.90;;;;;;5069087;28;20111;-45
2022/10/07 07:11:34;;;;;;;21.20;4.88;;;10.20;99.90;;;;;;5060995;28;20056;-48
2022/10/07 07:13:55;;;;;;;24.63;5.25;;;10.20;99.90;;;;;;5067705;28;20064;-49
2022/10/07 07:16:22;;;;;;;25.40;5.32;;;10.40;99.90;;;;;;5069604;28;20072;-48
2022/10/07 07:18:51;;;;;;;23.80;4.65;;;10.50;99.90;;;;;;5065027;28;20416;-50
2022/10/07 07:21:19;;;;;;;23.17;4.90;;;10.70;99.90;;;;;;5058504;28;20393;-49
2022/10/07 07:23:46;;;;;;;26.45;4.93;;;10.80;99.90;;;;;;5064054;28;20085;-48
2022/10/07 07:26:13;;;;;;;22.48;5.15;;;10.80;99.90;;;;;;5063514;28;20041;-52
2022/10/07 07:28:40;;;;;;;21.27;5.35;;;10.80;99.90;;;;;;5057449;28;20069;-51
2022/10/07 07:31:08;;;;;;;22.63;4.78;;;10.90;99.90;;;;;;5062004;28;20095;-49
2022/10/07 07:33:37;;;;;;;20.67;4.90;;;10.90;99.90;;;;;;5064341;28;20098;-49
2022/10/07 07:36:09;;;;;;;22.00;5.43;;;10.90;99.90;;;;;;5062844;28;20078;-51
2022/10/07 07:38:38;;;;;;;19.65;4.70;;;10.90;99.90;;;;;;5049986;28;20080;-51
2022/10/07 07:41:05;;;;;;;27.05;5.35;;;11.00;99.90;;;;;;5068267;28;20052;-48
2022/10/07 07:43:32;;;;;;;21.60;4.68;;;11.10;99.90;;;;;;5047208;28;20091;-49
2022/10/07 07:45:59;;;;;;;19.88;4.97;;;11.20;99.90;;;;;;5068492;28;20138;-45
2022/10/07 07:48:26;;;;;;;27.30;4.47;;;11.30;99.90;;;;;;5055801;28;20098;-47
2022/10/07 07:50:53;;;;;;;24.42;5.10;;;11.40;99.90;;;;;;5055757;28;20040;-51
2022/10/07 07:53:21;;;;;;;19.65;4.18;;;11.50;99.90;;;;;;5052546;28;20480;-50
2022/10/07 07:55:58;;;;;;;20.25;4.55;;;11.60;99.90;;;;;;5075121;28;20048;-48
2022/10/07 07:58:25;;;;;;;25.73;4.50;;;11.80;99.90;;;;;;5075619;28;20084;-51
2022/10/07 08:01:02;;;;;;;24.83;4.60;;;11.80;99.90;;;;;;5077798;28;20094;-49
2022/10/07 08:03:28;;;;;;;14.85;4.20;;;12.00;99.90;;;;;;5095887;28;20044;-47
2022/10/07 08:05:55;;;;;;;18.70;3.90;;;12.10;99.90;;;;;;5077772;28;20101;-50
2022/10/07 08:08:22;;;;;;;22.38;4.70;;;12.30;99.90;;;;;;5076741;28;20446;-49
2022/10/07 08:10:49;;;;;;;23.02;3.90;;;12.30;99.90;;;;;;5074778;28;20083;-51
2022/10/07 08:13:17;;;;;;;19.15;4.22;;;12.40;99.90;;;;;;5055104;28;20060;-49
2022/10/07 08:15:44;;;;;;;21.25;3.72;;;12.40;99.90;;;;;;5072733;28;20080;-49
2022/10/07 08:18:10;;;;;;;19.83;4.10;;;12.40;99.90;;;;;;5074529;28;20044;-48
2022/10/07 08:20:37;;;;;;;25.08;3.83;;;12.40;99.90;;;;;;5057369;28;20131;-48
2022/10/07 08:23:04;;;;;;;17.33;3.75;;;12.40;99.90;;;;;;5075113;28;20137;-49
2022/10/07 08:25:31;;;;;;;17.85;4.20;;;12.40;99.90;;;;;;5070711;28;20099;-45
2022/10/07 08:27:58;;;;;;;21.10;3.80;;;12.60;99.90;;;;;;5074864;28;20597;-46
2022/10/07 08:30:26;;;;;;;23.42;4.63;;;12.70;99.90;;;;;;5074800;28;20072;-47
2022/10/07 08:32:53;;;;;;;20.50;4.57;;;12.80;99.90;;;;;;5074827;28;20133;-47
2022/10/07 08:35:20;;;;;;;25.33;3.67;;;13.00;99.90;;;;;;5056803;28;20094;-49
2022/10/07 08:37:47;;;;;;;19.27;3.97;;;13.10;99.90;;;;;;5069617;28;20106;-48
2022/10/07 08:40:14;;;;;;;26.35;3.30;;;13.30;99.90;;;;;;5059508;28;20431;-45
2022/10/07 08:42:41;;;;;;;19.63;3.45;;;13.40;99.90;;;;;;5039237;28;20060;-48
2022/10/07 08:45:11;;;;;;;16.67;3.35;;;13.60;99.90;;;;;;5069239;28;20044;-48
2022/10/07 08:47:42;;;;;;;21.40;3.70;;;13.70;99.90;;;;;;5056075;28;20063;-47
2022/10/07 08:50:12;;;;;;;20.25;3.15;;;13.80;99.90;;;;;;5067331;28;20044;-47
2022/10/07 08:52:44;;;;;;;17.33;2.92;;;14.00;99.90;;;;;;5062939;28;20055;-48
2022/10/07 08:55:16;;;;;;;21.73;4.45;;;14.10;99.90;;;;;;5043717;28;20059;-47
2022/10/07 08:57:49;;;;;;;20.48;2.92;;;14.20;99.90;;;;;;5059672;28;20377;-46
2022/10/07 09:00:18;;;;;;;17.70;3.17;;;14.30;99.90;;;;;;5058829;28;20529;-46
2022/10/07 09:02:56;;;;;;;22.10;3.75;;;14.50;99.90;;;;;;5046795;28;20162;-44
2022/10/07 09:05:25;;;;;;;21.52;3.78;;;14.60;99.90;;;;;;5040319;28;20048;-48
2022/10/07 09:07:53;;;;;;;20.40;3.88;;;14.60;99.90;;;;;;5049136;28;20052;-45
2022/10/07 09:10:39;;;;;;;16.45;3.25;;;14.80;99.90;;;;;;5043207;28;20080;-45
2022/10/07 09:13:07;;;;;;;21.27;3.25;;;14.90;99.90;;;;;;5067050;28;20575;-48
2022/10/07 09:15:37;;;;;;;17.35;2.92;;;15.00;99.90;;;;;;5055305;28;20445;-49
2022/10/07 09:18:13;;;;;;;17.50;3.33;;;15.10;99.90;;;;;;5064824;28;20037;-46
2022/10/07 09:20:43;;;;;;;24.02;3.13;;;15.20;99.90;;;;;;5066602;28;20082;-48
2022/10/07 09:23:11;;;;;;;17.63;2.80;;;15.30;99.90;;;;;;5069473;28;20049;-47
2022/10/07 09:25:43;;;;;;;18.52;3.30;;;15.40;99.90;;;;;;5069057;28;20094;-47
2022/10/07 09:28:13;;;;;;;;;;;15.50;99.90;;;;;;5049669;28;20630;-45
2022/10/07 09:30:41;;;;;;;22.70;3.65;;;15.60;99.90;;;;;;5058683;28;19928;-48
2022/10/07 09:33:13;;;;;;;21.48;3.30;;;15.70;99.90;;;;;;5057894;28;20412;-49
2022/10/07 09:35:40;;;;;;;19.65;2.85;;;15.80;99.90;;;;;;5040821;28;20057;-46
2022/10/07 09:38:08;;;;;;;24.27;3.08;;;15.80;99.90;;;;;;5046251;28;20099;-47
2022/10/07 09:40:36;;;;;;;20.48;3.10;;;15.90;99.90;;;;;;5041773;28;20056;-45
2022/10/07 09:43:23;;;;;;;18.08;3.65;;;15.90;99.90;;;;;;5055147;28;20343;-48
2022/10/07 09:45:50;;;;;;;19.70;2.88;;;15.90;99.90;;;;;;5071656;28;20052;-44
2022/10/07 09:48:20;;;;;;;23.17;3.35;;;15.90;99.90;;;;;;5045406;28;20493;-49
2022/10/07 09:50:47;;;;;;;22.48;4.05;;;15.90;99.90;;;;;;5068870;28;20098;-49
2022/10/07 09:53:18;;;;;;;17.42;3.33;;;15.90;99.90;;;;;;5046493;28;20103;-47
2022/10/07 09:55:45;;;;;;;16.73;3.55;;;15.80;99.90;;;;;;5065767;28;20056;-47
2022/10/07 09:58:18;;;;;;;18.30;2.92;;;15.80;99.90;;;;;;5067141;28;20083;-48
2022/10/07 10:00:45;;;;;;;22.27;3.35;;;15.80;99.90;;;;;;5040823;28;20080;-45
2022/10/07 10:03:12;;;;;;;20.10;3.08;;;15.80;99.90;;;;;;5039679;28;20118;-50
2022/10/07 10:05:40;;;;;;;21.33;4.03;;;15.90;99.90;;;;;;5067042;28;20079;-51
2022/10/07 10:08:19;;;;;;;24.42;3.95;;;15.90;99.90;;;;;;5070972;28;20106;-46
2022/10/07 10:10:50;;;;;;;25.15;4.93;;;15.80;99.90;;;;;;5044107;28;20048;-46
2022/10/07 10:13:27;;;;;;;16.52;3.40;;;16.00;99.90;;;;;;5053937;28;20149;-46
2022/10/07 10:15:54;;;;;;;18.02;3.22;;;16.20;99.90;;;;;;5055101;28;20078;-48
2022/10/07 10:18:30;;;;;;;16.45;3.10;;;16.40;99.90;;;;;;5072984;28;20127;-49
2022/10/07 10:21:13;;;;;;;20.73;3.22;;;16.60;99.90;;;;;;5072911;28;20084;-49
2022/10/07 10:23:40;;;;;;;17.52;3.13;;;16.80;99.90;;;;;;5055499;28;20060;-47
2022/10/07 10:26:27;;;;;;;24.75;3.67;;;16.80;99.90;;;;;;5036473;28;20087;-46
2022/10/07 10:29:03;;;;;;;20.98;3.45;;;16.80;99.90;;;;;;5035276;28;20056;-44
2022/10/07 10:31:34;;;;;;;17.30;3.22;;;17.00;99.90;;;;;;5035085;28;20103;-50
2022/10/07 10:34:04;;;;;;;17.38;3.72;;;17.00;99.90;;;;;;5052257;28;20056;-47
2022/10/07 10:36:32;;;;;;;21.08;3.95;;;17.10;99.90;;;;;;5052541;28;20536;-47
2022/10/07 10:39:01;;;;;;;18.38;4.18;;;17.30;99.90;;;;;;5052709;28;20088;-49
2022/10/07 10:41:31;;;;;;;19.55;3.38;;;17.30;99.90;;;;;;5052279;28;20106;-48
2022/10/07 10:44:44;;;;;;;18.20;3.55;;;17.40;99.90;;;;;;5034736;28;20111;-45
2022/10/07 10:47:15;;;;;;;14.60;3.28;;;17.50;99.90;;;;;;5046042;28;20085;-49
2022/10/07 10:49:45;;;;;;;13.85;3.13;;;17.50;99.90;;;;;;5034743;28;20131;-47
2022/10/07 10:52:21;;;;;;;18.25;3.40;;;17.60;99.90;;;;;;5034883;28;20081;-45
2022/10/07 10:54:59;;;;;;;25.73;3.58;;;17.70;99.90;;;;;;5034758;28;20146;-46
2022/10/07 10:57:29;;;;;;;21.58;3.67;;;17.70;99.90;;;;;;5034990;28;20044;-45
2022/10/07 11:00:03;;;;;;;19.35;3.13;;;17.80;99.90;;;;;;5072603;28;20060;-47
2022/10/07 11:02:47;;;;;;;17.52;2.85;;;17.80;99.90;;;;;;5069338;28;20528;-49
2022/10/07 11:05:16;;;;;;;17.42;3.05;;;17.90;99.90;;;;;;5044624;28;20100;-46
2022/10/07 11:07:45;;;;;;;12.80;2.50;;;18.00;99.90;;;;;;5048425;28;20048;-49
2022/10/07 11:10:17;;;;;;;16.48;2.78;;;18.00;99.80;;;;;;5069789;28;20095;-49
2022/10/07 11:12:46;;;;;;;18.38;3.25;;;18.10;99.50;;;;;;5053820;28;20049;-45
2022/10/07 11:15:15;;;;;;;14.18;2.90;;;18.00;99.50;;;;;;5051130;28;20051;-47
2022/10/07 11:17:42;;;;;;;11.05;2.45;;;18.00;99.50;;;;;;5046831;28;20063;-47
2022/10/07 11:20:14;;;;;;;18.45;2.70;;;18.00;99.60;;;;;;5069242;28;20048;-49
2022/10/07 11:22:46;;;;;;;15.80;2.72;;;18.00;99.50;;;;;;5067083;28;20084;-42
2022/10/07 11:25:17;;;;;;;20.85;3.17;;;17.90;99.50;;;;;;5046803;28;20110;-50
2022/10/07 11:27:45;;;;;;;14.52;2.50;;;18.00;99.60;;;;;;5062043;28;20045;-47
2022/10/07 11:30:17;;;;;;;14.57;2.70;;;18.10;99.60;;;;;;5072500;28;20099;-48
2022/10/07 11:32:45;;;;;;;19.27;3.55;;;18.30;99.30;;;;;;5055832;28;20088;-46
2022/10/07 11:35:20;;;;;;;15.10;3.38;;;18.40;99.10;;;;;;5061600;28;20052;-49
2022/10/07 11:37:52;;;;;;;17.77;3.70;;;18.50;98.90;;;;;;5067537;28;20063;-48
2022/10/07 11:40:19;;;;;;;;;;;18.40;98.60;;;;;;5059604;28;20053;-49
2022/10/07 11:42:48;;;;;;;14.85;2.97;;;18.30;98.10;;;;;;5062601;28;19974;-46
2022/10/07 11:45:17;;;;;;;15.90;2.67;;;18.30;98.70;;;;;;5061668;28;20057;-46
2022/10/07 11:47:46;;;;;;;17.20;3.70;;;18.40;98.70;;;;;;5059939;28;20123;-50
2022/10/07 11:50:14;;;;;;;16.33;3.28;;;18.60;98.70;;;;;;5068526;28;20077;-50
2022/10/07 11:52:43;;;;;;;16.33;3.38;;;18.70;98.00;;;;;;5043501;28;20076;-50
2022/10/07 11:55:16;;;;;;;14.15;3.40;;;18.70;97.50;;;;;;5066551;28;20566;-51
2022/10/07 11:57:42;;;;;;;16.20;2.78;;;18.60;97.40;;;;;;5063881;28;20080;-50
2022/10/07 12:00:22;;;;;;;18.00;2.95;;;18.50;97.50;;;;;;5075065;28;20469;-50
2022/10/07 12:02:49;;;;;;;19.27;4.32;;;18.50;97.70;;;;;;5075424;28;20123;-50
2022/10/07 12:05:54;;;;;;;19.42;3.15;;;18.50;98.10;;;;;;5057515;28;20399;-50
2022/10/07 12:08:26;;;;;;;18.88;3.10;;;18.40;97.30;;;;;;4973916;28;20138;-51
2022/10/07 12:10:54;;;;;;;15.02;2.80;;;18.30;98.00;;;;;;4969096;28;20082;-49
2022/10/07 12:13:38;;;;;;;12.98;2.60;;;18.30;98.30;;;;;;5009236;28;20044;-51
2022/10/07 12:16:42;;;;;;;10.75;2.42;;;18.30;98.20;;;;;;5050222;28;20056;-48
2022/10/07 12:19:15;;;;;;;9.77;2.33;;;18.30;97.20;;;;;;5051887;28;20492;-50
2022/10/07 12:22:14;;;;;;;12.48;2.78;;;18.30;97.50;;;;;;5071302;28;20044;-48
2022/10/07 12:24:44;;;;;;;12.88;2.13;;;18.30;97.40;;;;;;5059273;28;20567;-45
2022/10/07 12:27:14;;;;;;;12.23;2.55;;;18.40;97.50;;;;;;5069355;28;20049;-50
2022/10/07 12:29:49;;;;;;;18.50;2.28;;;18.30;96.80;;;;;;5040235;28;20051;-49
2022/10/07 12:32:45;;;;;;;11.98;2.15;;;18.40;96.60;;;;;;5056588;28;20053;-50
2022/10/07 12:35:40;;;;;;;12.18;2.10;;;18.40;96.40;;;;;;5075380;28;20044;-50
2022/10/07 12:38:13;;;;;;;12.55;2.47;;;18.40;96.10;;;;;;5074597;28;20455;-49
2022/10/07 12:40:40;;;;;;;12.40;2.30;;;18.40;96.60;;;;;;5059407;28;20056;-51
2022/10/07 12:43:19;;;;;;;17.05;3.22;;;18.30;96.60;;;;;;5056031;28;20140;-47
2022/10/07 12:45:46;;;;;;;14.40;2.30;;;18.40;96.50;;;;;;5074571;28;20091;-50
2022/10/07 12:48:15;;;;;;;17.20;2.97;;;18.50;96.50;;;;;;5074154;28;20132;-51
2022/10/07 12:50:41;;;;;;;13.52;2.13;;;18.50;96.50;;;;;;5056865;28;20113;-49
2022/10/07 12:53:09;;;;;;;14.20;2.40;;;18.60;96.20;;;;;;5056447;28;20098;-47
2022/10/07 12:55:37;;;;;;;14.73;2.40;;;18.70;95.90;;;;;;5074292;28;20087;-48
2022/10/07 13:01:03;;;;;;;11.60;3.42;;;18.60;95.70;;;;;;5049104;28;20129;-46
2022/10/07 13:03:59;;;;;;;10.65;2.25;;;18.60;95.70;;;;;;5065876;28;20128;-48